sensor_id;sensor_type;location;lat;lon;timestamp;temperature;humidity
27306;DHT22;14792;50.886;6.468;2022-12-20T00:00:47;12.40;99.90
27306;DHT22;14792;50.886;6.468;2022-12-20T00:03:51;12.60;99.90
27306;DHT22;14792;50.886;6.468;2022-12-20T00:06:52;12.70;99.90
27306;DHT22;14792;50.886;6.468;2022-12-20T00:09:53;12.70;99.90
27306;DHT22;14792;50.886;6.468;2022-12-20T00:12:55;12.70;99.90
27306;DHT22;14792;50.886;6.468;2022-12-20T00:16:03;12.60;99.90
27306;DHT22;14792;50.886;6.468;2022-12-20T00:19:05;12.50;99.90
27306;DHT22;14792;50.886;6.468;2022-12-20T00:22:06;12.40;99.90
27306;DHT22;14792;50.886;6.468;2022-12-20T00:25:07;12.50;99.90
27306;DHT22;14792;50.886;6.468;2022-12-20T00:28:09;12.40;99.90
27306;DHT22;14792;50.886;6.468;2022-12-20T00:31:12;12.40;99.90
27306;DHT22;14792;50.886;6.468;2022-12-20T00:34:12;12.30;99.90
27306;DHT22;14792;50.886;6.468;2022-12-20T00:37:14;12.30;99.90
27306;DHT22;14792;50.886;6.468;2022-12-20T00:40:16;12.40;99.90
27306;DHT22;14792;50.886;6.468;2022-12-20T00:43:17;12.30;99.90
27306;DHT22;14792;50.886;6.468;2022-12-20T00:46:19;12.40;99.90
27306;DHT22;14792;50.886;6.468;2022-12-20T00:49:20;12.40;99.90
27306;DHT22;14792;50.886;6.468;2022-12-20T00:52:22;12.30;99.90
27306;DHT22;14792;50.886;6.468;2022-12-20T00:55:23;12.30;99.90
27306;DHT22;14792;50.886;6.468;2022-12-20T00:58:26;12.40;99.90
27306;DHT22;14792;50.886;6.468;2022-12-20T01:01:30;12.40;99.90
27306;DHT22;14792;50.886;6.468;2022-12-20T01:04:31;12.40;99.90
27306;DHT22;14792;50.886;6.468;2022-12-20T01:07:33;12.40;99.90
27306;DHT22;14792;50.886;6.468;2022-12-20T01:10:34;12.50;99.90
27306;DHT22;14792;50.886;6.468;2022-12-20T01:13:36;12.60;99.90
27306;DHT22;14792;50.886;6.468;2022-12-20T01:16:41;12.60;99.90
27306;DHT22;14792;50.886;6.468;2022-12-20T01:19:43;12.70;99.90
27306;DHT22;14792;50.886;6.468;2022-12-20T01:22:44;12.70;99.90
27306;DHT22;14792;50.886;6.468;2022-12-20T01:25:46;12.60;99.90
27306;DHT22;14792;50.886;6.468;2022-12-20T01:28:48;12.60;99.90
27306;DHT22;14792;50.886;6.468;2022-12-20T01:31:49;12.60;99.90
27306;DHT22;14792;50.886;6.468;2022-12-20T01:34:52;12.60;99.90
27306;DHT22;14792;50.886;6.468;2022-12-20T01:37:52;12.60;99.90
27306;DHT22;14792;50.886;6.468;2022-12-20T01:40:54;12.50;99.90
27306;DHT22;14792;50.886;6.468;2022-12-20T01:43:59;12.50;99.90
27306;DHT22;14792;50.886;6.468;2022-12-20T01:47:00;12.40;99.90
27306;DHT22;14792;50.886;6.468;2022-12-20T01:50:02;12.40;99.90
27306;DHT22;14792;50.886;6.468;2022-12-20T01:53:03;12.40;99.90
27306;DHT22;14792;50.886;6.468;2022-12-20T01:56:04;12.30;99.90
27306;DHT22;14792;50.886;6.468;2022-12-20T01:59:06;12.30;99.90
27306;DHT22;14792;50.886;6.468;2022-12-20T02:02:10;12.30;99.90
27306;DHT22;14792;50.886;6.468;2022-12-20T02:05:12;12.30;99.90
27306;DHT22;14792;50.886;6.468;2022-12-20T02:08:16;12.30;99.90
27306;DHT22;14792;50.886;6.468;2022-12-20T02:11:23;12.20;99.90
27306;DHT22;14792;50.886;6.468;2022-12-20T02:21:01;12.00;99.90
27306;DHT22;14792;50.886;6.468;2022-12-20T02:27:30;11.90;99.90
27306;DHT22;14792;50.886;6.468;2022-12-20T02:30:33;11.80;99.90
27306;DHT22;14792;50.886;6.468;2022-12-20T02:33:34;11.80;99.90
27306;DHT22;14792;50.886;6.468;2022-12-20T02:36:36;11.80;99.90
27306;DHT22;14792;50.886;6.468;2022-12-20T02:39:38;11.70;99.90
27306;DHT22;14792;50.886;6.468;2022-12-20T02:42:41;11.80;99.90
27306;DHT22;14792;50.886;6.468;2022-12-20T02:45:42;11.80;99.90
27306;DHT22;14792;50.886;6.468;2022-12-20T02:48:44;11.80;99.90
27306;DHT22;14792;50.886;6.468;2022-12-20T02:51:46;11.70;99.90
27306;DHT22;14792;50.886;6.468;2022-12-20T02:54:47;11.60;99.90
27306;DHT22;14792;50.886;6.468;2022-12-20T02:57:55;11.50;99.90
27306;DHT22;14792;50.886;6.468;2022-12-20T03:00:53;11.40;99.90
27306;DHT22;14792;50.886;6.468;2022-12-20T03:03:55;11.40;99.90
27306;DHT22;14792;50.886;6.468;2022-12-20T03:07:03;11.50;99.90
27306;DHT22;14792;50.886;6.468;2022-12-20T03:10:03;11.50;99.90
27306;DHT22;14792;50.886;6.468;2022-12-20T03:13:05;11.40;99.90
27306;DHT22;14792;50.886;6.468;2022-12-20T03:16:07;11.40;99.90
27306;DHT22;14792;50.886;6.468;2022-12-20T03:19:12;11.40;99.90
27306;DHT22;14792;50.886;6.468;2022-12-20T03:22:13;11.50;99.90
27306;DHT22;14792;50.886;6.468;2022-12-20T03:25:15;11.50;99.90
27306;DHT22;14792;50.886;6.468;2022-12-20T03:28:16;11.50;99.90
27306;DHT22;14792;50.886;6.468;2022-12-20T03:31:18;11.60;99.90
27306;DHT22;14792;50.886;6.468;2022-12-20T03:34:19;11.70;99.90
27306;DHT22;14792;50.886;6.468;2022-12-20T03:37:21;11.60;99.90
27306;DHT22;14792;50.886;6.468;2022-12-20T03:40:23;11.50;99.90
27306;DHT22;14792;50.886;6.468;2022-12-20T03:43:24;11.50;99.90
27306;DHT22;14792;50.886;6.468;2022-12-20T03:46:26;11.40;99.90
27306;DHT22;14792;50.886;6.468;2022-12-20T03:49:27;11.30;99.90
27306;DHT22;14792;50.886;6.468;2022-12-20T03:52:29;11.20;99.90
27306;DHT22;14792;50.886;6.468;2022-12-20T03:55:31;11.10;99.90
27306;DHT22;14792;50.886;6.468;2022-12-20T03:58:32;11.00;99.90
27306;DHT22;14792;50.886;6.468;2022-12-20T04:01:34;10.90;99.90
27306;DHT22;14792;50.886;6.468;2022-12-20T04:04:35;10.90;99.90
27306;DHT22;14792;50.886;6.468;2022-12-20T04:07:37;10.80;99.90
27306;DHT22;14792;50.886;6.468;2022-12-20T04:10:39;10.70;99.90
27306;DHT22;14792;50.886;6.468;2022-12-20T04:13:41;10.70;99.90
27306;DHT22;14792;50.886;6.468;2022-12-20T04:16:42;10.70;99.90
27306;DHT22;14792;50.886;6.468;2022-12-20T04:19:44;10.60;99.90
27306;DHT22;14792;50.886;6.468;2022-12-20T04:22:48;10.60;99.90
27306;DHT22;14792;50.886;6.468;2022-12-20T04:25:47;10.70;99.90
27306;DHT22;14792;50.886;6.468;2022-12-20T04:28:48;10.70;99.90
27306;DHT22;14792;50.886;6.468;2022-12-20T04:31:50;10.80;99.90
27306;DHT22;14792;50.886;6.468;2022-12-20T04:34:52;10.80;99.90
27306;DHT22;14792;50.886;6.468;2022-12-20T04:37:53;10.90;99.90
27306;DHT22;14792;50.886;6.468;2022-12-20T04:40:55;11.00;99.90
27306;DHT22;14792;50.886;6.468;2022-12-20T04:43:57;11.10;99.90
27306;DHT22;14792;50.886;6.468;2022-12-20T04:46:58;11.10;99.90
27306;DHT22;14792;50.886;6.468;2022-12-20T04:49:59;11.10;99.90
27306;DHT22;14792;50.886;6.468;2022-12-20T04:53:01;11.20;99.90
27306;DHT22;14792;50.886;6.468;2022-12-20T04:56:22;11.30;99.90
27306;DHT22;14792;50.886;6.468;2022-12-20T04:59:22;11.30;99.90
27306;DHT22;14792;50.886;6.468;2022-12-20T05:02:24;11.30;99.90
27306;DHT22;14792;50.886;6.468;2022-12-20T05:05:25;11.30;99.90
27306;DHT22;14792;50.886;6.468;2022-12-20T05:08:27;11.30;99.90
27306;DHT22;14792;50.886;6.468;2022-12-20T05:11:28;11.40;99.90
27306;DHT22;14792;50.886;6.468;2022-12-20T05:14:30;11.40;99.90
27306;DHT22;14792;50.886;6.468;2022-12-20T05:17:32;11.40;99.90
27306;DHT22;14792;50.886;6.468;2022-12-20T05:20:33;11.40;99.90
27306;DHT22;14792;50.886;6.468;2022-12-20T05:23:35;11.30;99.90
27306;DHT22;14792;50.886;6.468;2022-12-20T05:26:54;11.30;99.90
27306;DHT22;14792;50.886;6.468;2022-12-20T05:29:56;11.30;99.90
27306;DHT22;14792;50.886;6.468;2022-12-20T05:32:57;11.30;99.90
27306;DHT22;14792;50.886;6.468;2022-12-20T05:35:59;11.40;99.90
27306;DHT22;14792;50.886;6.468;2022-12-20T05:39:01;11.40;99.90
27306;DHT22;14792;50.886;6.468;2022-12-20T05:42:02;11.40;99.90
27306;DHT22;14792;50.886;6.468;2022-12-20T05:45:04;11.40;99.90
27306;DHT22;14792;50.886;6.468;2022-12-20T05:48:05;11.30;99.90
27306;DHT22;14792;50.886;6.468;2022-12-20T05:51:07;11.40;99.90
27306;DHT22;14792;50.886;6.468;2022-12-20T05:54:09;11.40;99.90
27306;DHT22;14792;50.886;6.468;2022-12-20T05:57:11;11.50;99.90
27306;DHT22;14792;50.886;6.468;2022-12-20T06:00:13;11.50;99.90
27306;DHT22;14792;50.886;6.468;2022-12-20T06:03:14;11.50;99.90
27306;DHT22;14792;50.886;6.468;2022-12-20T06:06:16;11.50;99.90
27306;DHT22;14792;50.886;6.468;2022-12-20T06:09:17;11.50;99.90
27306;DHT22;14792;50.886;6.468;2022-12-20T06:12:19;11.50;99.90
27306;DHT22;14792;50.886;6.468;2022-12-20T06:15:21;11.50;99.90
27306;DHT22;14792;50.886;6.468;2022-12-20T06:18:22;11.50;99.90
27306;DHT22;14792;50.886;6.468;2022-12-20T06:21:24;11.60;99.90
27306;DHT22;14792;50.886;6.468;2022-12-20T06:24:25;11.60;99.90
27306;DHT22;14792;50.886;6.468;2022-12-20T06:27:27;11.60;99.90
27306;DHT22;14792;50.886;6.468;2022-12-20T06:30:28;11.60;99.90
27306;DHT22;14792;50.886;6.468;2022-12-20T06:33:30;11.60;99.90
27306;DHT22;14792;50.886;6.468;2022-12-20T06:36:32;11.70;99.90
27306;DHT22;14792;50.886;6.468;2022-12-20T06:39:33;11.60;99.90
27306;DHT22;14792;50.886;6.468;2022-12-20T06:42:35;11.70;99.90
27306;DHT22;14792;50.886;6.468;2022-12-20T06:45:36;11.70;99.90
27306;DHT22;14792;50.886;6.468;2022-12-20T06:48:38;11.70;99.90
27306;DHT22;14792;50.886;6.468;2022-12-20T06:51:41;11.70;99.90
27306;DHT22;14792;50.886;6.468;2022-12-20T06:54:43;11.60;99.90
27306;DHT22;14792;50.886;6.468;2022-12-20T06:57:44;11.70;99.90
27306;DHT22;14792;50.886;6.468;2022-12-20T07:00:46;11.70;99.90
27306;DHT22;14792;50.886;6.468;2022-12-20T07:03:47;11.70;99.90
27306;DHT22;14792;50.886;6.468;2022-12-20T07:06:49;11.80;99.90
27306;DHT22;14792;50.886;6.468;2022-12-20T07:09:51;11.80;99.90
27306;DHT22;14792;50.886;6.468;2022-12-20T07:12:52;11.80;99.90
27306;DHT22;14792;50.886;6.468;2022-12-20T07:15:57;11.80;99.90
27306;DHT22;14792;50.886;6.468;2022-12-20T07:18:58;11.80;99.90
27306;DHT22;14792;50.886;6.468;2022-12-20T07:22:01;11.80;99.90
27306;DHT22;14792;50.886;6.468;2022-12-20T07:25:02;11.80;99.90
27306;DHT22;14792;50.886;6.468;2022-12-20T07:28:04;11.80;99.90
27306;DHT22;14792;50.886;6.468;2022-12-20T07:31:05;11.80;99.90
27306;DHT22;14792;50.886;6.468;2022-12-20T07:34:07;11.90;99.90
27306;DHT22;14792;50.886;6.468;2022-12-20T07:37:09;12.00;99.90
27306;DHT22;14792;50.886;6.468;2022-12-20T07:40:11;12.00;99.90
27306;DHT22;14792;50.886;6.468;2022-12-20T07:43:13;11.90;99.90
27306;DHT22;14792;50.886;6.468;2022-12-20T07:46:14;12.00;99.90
27306;DHT22;14792;50.886;6.468;2022-12-20T07:49:16;12.00;99.90
27306;DHT22;14792;50.886;6.468;2022-12-20T07:52:18;12.10;99.90
27306;DHT22;14792;50.886;6.468;2022-12-20T07:55:19;12.00;99.90
27306;DHT22;14792;50.886;6.468;2022-12-20T07:58:21;11.90;99.90
27306;DHT22;14792;50.886;6.468;2022-12-20T08:01:23;12.00;99.90
27306;DHT22;14792;50.886;6.468;2022-12-20T08:04:24;12.00;99.90
27306;DHT22;14792;50.886;6.468;2022-12-20T08:07:26;12.00;99.90
27306;DHT22;14792;50.886;6.468;2022-12-20T08:10:27;11.90;99.90
27306;DHT22;14792;50.886;6.468;2022-12-20T08:13:29;11.90;99.90
27306;DHT22;14792;50.886;6.468;2022-12-20T08:16:30;11.90;99.90
27306;DHT22;14792;50.886;6.468;2022-12-20T08:19:32;11.90;99.90
27306;DHT22;14792;50.886;6.468;2022-12-20T08:22:33;11.90;99.90
27306;DHT22;14792;50.886;6.468;2022-12-20T08:25:35;11.90;99.90
27306;DHT22;14792;50.886;6.468;2022-12-20T08:28:36;11.90;99.90
27306;DHT22;14792;50.886;6.468;2022-12-20T08:31:39;12.00;99.90
27306;DHT22;14792;50.886;6.468;2022-12-20T08:34:41;12.00;99.90
27306;DHT22;14792;50.886;6.468;2022-12-20T08:37:43;12.00;99.90
27306;DHT22;14792;50.886;6.468;2022-12-20T08:40:44;12.00;99.90
27306;DHT22;14792;50.886;6.468;2022-12-20T08:43:46;11.90;99.90
27306;DHT22;14792;50.886;6.468;2022-12-20T08:46:48;12.00;99.90
27306;DHT22;14792;50.886;6.468;2022-12-20T08:49:50;12.10;99.90
27306;DHT22;14792;50.886;6.468;2022-12-20T08:52:51;12.20;99.90
27306;DHT22;14792;50.886;6.468;2022-12-20T08:55:53;12.10;99.90
27306;DHT22;14792;50.886;6.468;2022-12-20T08:58:54;12.10;99.90
27306;DHT22;14792;50.886;6.468;2022-12-20T09:01:56;12.10;99.90
27306;DHT22;14792;50.886;6.468;2022-12-20T09:04:57;12.10;99.90
27306;DHT22;14792;50.886;6.468;2022-12-20T09:07:59;12.20;99.90
27306;DHT22;14792;50.886;6.468;2022-12-20T09:11:14;12.40;99.90
27306;DHT22;14792;50.886;6.468;2022-12-20T09:14:14;12.40;99.90
27306;DHT22;14792;50.886;6.468;2022-12-20T09:17:15;12.30;99.90
27306;DHT22;14792;50.886;6.468;2022-12-20T09:20:17;12.20;99.90
27306;DHT22;14792;50.886;6.468;2022-12-20T09:23:19;12.10;99.90
27306;DHT22;14792;50.886;6.468;2022-12-20T09:26:21;12.10;99.90
27306;DHT22;14792;50.886;6.468;2022-12-20T09:29:22;12.20;99.90
27306;DHT22;14792;50.886;6.468;2022-12-20T09:32:23;12.20;99.90
27306;DHT22;14792;50.886;6.468;2022-12-20T09:35:25;12.20;99.90
27306;DHT22;14792;50.886;6.468;2022-12-20T09:38:27;12.20;99.90
27306;DHT22;14792;50.886;6.468;2022-12-20T09:41:38;12.10;99.90
27306;DHT22;14792;50.886;6.468;2022-12-20T09:44:39;12.20;99.90
27306;DHT22;14792;50.886;6.468;2022-12-20T09:47:43;12.10;99.90
27306;DHT22;14792;50.886;6.468;2022-12-20T09:51:06;12.20;99.90
27306;DHT22;14792;50.886;6.468;2022-12-20T10:00:21;12.30;99.90
27306;DHT22;14792;50.886;6.468;2022-12-20T10:03:28;12.30;99.90
27306;DHT22;14792;50.886;6.468;2022-12-20T10:13:34;12.50;99.90
27306;DHT22;14792;50.886;6.468;2022-12-20T10:16:41;12.40;99.90
27306;DHT22;14792;50.886;6.468;2022-12-20T10:22:51;12.70;99.90
27306;DHT22;14792;50.886;6.468;2022-12-20T10:25:50;12.70;99.90
27306;DHT22;14792;50.886;6.468;2022-12-20T10:28:51;12.80;99.90
27306;DHT22;14792;50.886;6.468;2022-12-20T10:31:53;12.80;99.90
27306;DHT22;14792;50.886;6.468;2022-12-20T10:35:46;13.10;99.90
27306;DHT22;14792;50.886;6.468;2022-12-20T10:38:06;13.20;99.90
27306;DHT22;14792;50.886;6.468;2022-12-20T10:41:10;13.30;99.90
27306;DHT22;14792;50.886;6.468;2022-12-20T10:47:40;13.40;99.90
27306;DHT22;14792;50.886;6.468;2022-12-20T10:50:42;13.50;99.90
27306;DHT22;14792;50.886;6.468;2022-12-20T10:54:02;13.50;99.90
27306;DHT22;14792;50.886;6.468;2022-12-20T10:57:12;13.60;99.90
27306;DHT22;14792;50.886;6.468;2022-12-20T11:00:05;13.50;99.90
27306;DHT22;14792;50.886;6.468;2022-12-20T11:03:15;13.50;99.90
27306;DHT22;14792;50.886;6.468;2022-12-20T11:06:14;13.50;99.90
27306;DHT22;14792;50.886;6.468;2022-12-20T11:09:22;13.60;99.90
27306;DHT22;14792;50.886;6.468;2022-12-20T11:12:21;13.60;99.90
27306;DHT22;14792;50.886;6.468;2022-12-20T11:15:24;13.60;99.90
27306;DHT22;14792;50.886;6.468;2022-12-20T11:25:46;13.70;99.90
27306;DHT22;14792;50.886;6.468;2022-12-20T11:39:01;13.50;99.90
27306;DHT22;14792;50.886;6.468;2022-12-20T11:45:24;13.60;99.90
27306;DHT22;14792;50.886;6.468;2022-12-20T11:48:33;13.50;99.90
27306;DHT22;14792;50.886;6.468;2022-12-20T11:51:46;13.40;99.90
27306;DHT22;14792;50.886;6.468;2022-12-20T11:54:47;13.50;99.90
27306;DHT22;14792;50.886;6.468;2022-12-20T11:58:00;13.50;99.90
27306;DHT22;14792;50.886;6.468;2022-12-20T12:01:11;13.40;99.90
27306;DHT22;14792;50.886;6.468;2022-12-20T12:04:13;13.30;99.90
27306;DHT22;14792;50.886;6.468;2022-12-20T12:07:17;13.30;99.90
27306;DHT22;14792;50.886;6.468;2022-12-20T12:10:19;13.30;99.90
27306;DHT22;14792;50.886;6.468;2022-12-20T12:13:24;13.30;99.90
27306;DHT22;14792;50.886;6.468;2022-12-20T12:16:27;13.20;99.90
27306;DHT22;14792;50.886;6.468;2022-12-20T12:19:28;13.30;99.90
27306;DHT22;14792;50.886;6.468;2022-12-20T12:22:32;13.30;99.90
27306;DHT22;14792;50.886;6.468;2022-12-20T12:25:31;13.30;99.90
27306;DHT22;14792;50.886;6.468;2022-12-20T12:28:33;13.30;99.90
27306;DHT22;14792;50.886;6.468;2022-12-20T12:31:38;13.30;99.90
27306;DHT22;14792;50.886;6.468;2022-12-20T12:38:03;13.20;99.90
27306;DHT22;14792;50.886;6.468;2022-12-20T12:47:22;13.20;99.90
27306;DHT22;14792;50.886;6.468;2022-12-20T12:50:26;13.20;99.90
27306;DHT22;14792;50.886;6.468;2022-12-20T12:53:48;13.20;99.90
27306;DHT22;14792;50.886;6.468;2022-12-20T12:56:52;13.20;99.90
27306;DHT22;14792;50.886;6.468;2022-12-20T12:59:53;13.30;99.90
27306;DHT22;14792;50.886;6.468;2022-12-20T13:02:55;13.30;99.90
27306;DHT22;14792;50.886;6.468;2022-12-20T13:05:56;13.30;99.90
27306;DHT22;14792;50.886;6.468;2022-12-20T13:11:59;13.40;99.90
27306;DHT22;14792;50.886;6.468;2022-12-20T13:18:21;13.40;99.90
27306;DHT22;14792;50.886;6.468;2022-12-20T13:21:29;13.30;99.90
27306;DHT22;14792;50.886;6.468;2022-12-20T13:27:40;13.40;99.90
27306;DHT22;14792;50.886;6.468;2022-12-20T13:30:45;13.40;99.90
27306;DHT22;14792;50.886;6.468;2022-12-20T13:33:49;13.50;99.90
27306;DHT22;14792;50.886;6.468;2022-12-20T13:36:50;13.50;99.90
27306;DHT22;14792;50.886;6.468;2022-12-20T13:39:52;13.40;99.90
27306;DHT22;14792;50.886;6.468;2022-12-20T13:42:54;13.40;99.90
27306;DHT22;14792;50.886;6.468;2022-12-20T13:46:12;13.40;99.90
27306;DHT22;14792;50.886;6.468;2022-12-20T13:49:16;13.40;99.90
27306;DHT22;14792;50.886;6.468;2022-12-20T13:55:25;13.30;99.90
27306;DHT22;14792;50.886;6.468;2022-12-20T13:58:26;13.20;99.90
27306;DHT22;14792;50.886;6.468;2022-12-20T14:01:27;13.20;99.90
27306;DHT22;14792;50.886;6.468;2022-12-20T14:04:39;13.10;99.90
27306;DHT22;14792;50.886;6.468;2022-12-20T14:07:40;13.00;99.90
27306;DHT22;14792;50.886;6.468;2022-12-20T14:10:42;12.90;99.90
27306;DHT22;14792;50.886;6.468;2022-12-20T14:13:59;12.80;99.90
27306;DHT22;14792;50.886;6.468;2022-12-20T14:20:17;12.80;99.90
27306;DHT22;14792;50.886;6.468;2022-12-20T14:23:34;12.70;99.90
27306;DHT22;14792;50.886;6.468;2022-12-20T14:26:26;12.70;99.90
27306;DHT22;14792;50.886;6.468;2022-12-20T14:29:25;12.70;99.90
27306;DHT22;14792;50.886;6.468;2022-12-20T14:32:25;12.70;99.90
27306;DHT22;14792;50.886;6.468;2022-12-20T14:35:27;12.80;99.90
27306;DHT22;14792;50.886;6.468;2022-12-20T14:38:28;12.80;99.90
27306;DHT22;14792;50.886;6.468;2022-12-20T14:41:37;12.90;99.90
27306;DHT22;14792;50.886;6.468;2022-12-20T14:44:34;13.00;99.90
27306;DHT22;14792;50.886;6.468;2022-12-20T14:47:36;13.00;99.90
27306;DHT22;14792;50.886;6.468;2022-12-20T14:50:37;13.00;99.90
27306;DHT22;14792;50.886;6.468;2022-12-20T14:53:40;12.90;99.90
27306;DHT22;14792;50.886;6.468;2022-12-20T14:56:43;12.90;99.90
27306;DHT22;14792;50.886;6.468;2022-12-20T14:59:42;12.80;99.90
27306;DHT22;14792;50.886;6.468;2022-12-20T15:06:00;12.60;99.90
27306;DHT22;14792;50.886;6.468;2022-12-20T15:09:02;12.60;99.90
27306;DHT22;14792;50.886;6.468;2022-12-20T15:12:03;12.50;99.90
27306;DHT22;14792;50.886;6.468;2022-12-20T15:15:05;12.50;99.90
27306;DHT22;14792;50.886;6.468;2022-12-20T15:18:13;12.40;99.90
27306;DHT22;14792;50.886;6.468;2022-12-20T15:21:14;12.30;99.90
27306;DHT22;14792;50.886;6.468;2022-12-20T15:24:20;12.30;99.90
27306;DHT22;14792;50.886;6.468;2022-12-20T15:27:17;12.20;99.90
27306;DHT22;14792;50.886;6.468;2022-12-20T15:30:19;12.20;99.90
27306;DHT22;14792;50.886;6.468;2022-12-20T15:33:24;12.30;99.90
27306;DHT22;14792;50.886;6.468;2022-12-20T15:36:25;12.20;99.90
27306;DHT22;14792;50.886;6.468;2022-12-20T15:39:29;12.20;99.90
27306;DHT22;14792;50.886;6.468;2022-12-20T15:42:30;12.20;99.90
27306;DHT22;14792;50.886;6.468;2022-12-20T15:45:32;12.20;99.90
27306;DHT22;14792;50.886;6.468;2022-12-20T15:48:33;12.20;99.90
27306;DHT22;14792;50.886;6.468;2022-12-20T15:51:35;12.20;99.90
27306;DHT22;14792;50.886;6.468;2022-12-20T15:54:37;12.20;99.90
27306;DHT22;14792;50.886;6.468;2022-12-20T15:57:38;12.20;99.90
27306;DHT22;14792;50.886;6.468;2022-12-20T16:00:41;12.20;99.90
27306;DHT22;14792;50.886;6.468;2022-12-20T16:03:43;12.00;99.90
27306;DHT22;14792;50.886;6.468;2022-12-20T16:06:46;12.10;99.90
27306;DHT22;14792;50.886;6.468;2022-12-20T16:09:46;12.10;99.90
27306;DHT22;14792;50.886;6.468;2022-12-20T16:12:47;12.10;99.90
27306;DHT22;14792;50.886;6.468;2022-12-20T16:15:51;12.00;99.90
27306;DHT22;14792;50.886;6.468;2022-12-20T16:18:51;12.00;99.90
27306;DHT22;14792;50.886;6.468;2022-12-20T16:21:52;12.00;99.90
27306;DHT22;14792;50.886;6.468;2022-12-20T16:24:54;11.90;99.90
27306;DHT22;14792;50.886;6.468;2022-12-20T16:27:55;11.90;99.90
27306;DHT22;14792;50.886;6.468;2022-12-20T16:30:57;11.90;99.90
27306;DHT22;14792;50.886;6.468;2022-12-20T16:34:01;11.80;99.90
27306;DHT22;14792;50.886;6.468;2022-12-20T16:37:00;11.70;99.90
27306;DHT22;14792;50.886;6.468;2022-12-20T16:40:02;11.70;99.90
27306;DHT22;14792;50.886;6.468;2022-12-20T16:43:03;11.70;99.90
27306;DHT22;14792;50.886;6.468;2022-12-20T16:46:05;11.70;99.90
27306;DHT22;14792;50.886;6.468;2022-12-20T16:49:07;11.70;99.90
27306;DHT22;14792;50.886;6.468;2022-12-20T16:52:13;11.70;99.90
27306;DHT22;14792;50.886;6.468;2022-12-20T16:55:20;11.70;99.90
27306;DHT22;14792;50.886;6.468;2022-12-20T16:58:21;11.60;99.90
27306;DHT22;14792;50.886;6.468;2022-12-20T17:01:23;11.60;99.90
27306;DHT22;14792;50.886;6.468;2022-12-20T17:04:24;11.50;99.90
27306;DHT22;14792;50.886;6.468;2022-12-20T17:07:25;11.50;99.90
27306;DHT22;14792;50.886;6.468;2022-12-20T17:10:27;11.50;99.90
27306;DHT22;14792;50.886;6.468;2022-12-20T17:13:29;11.50;99.90
27306;DHT22;14792;50.886;6.468;2022-12-20T17:16:30;11.50;99.90
27306;DHT22;14792;50.886;6.468;2022-12-20T17:19:32;11.50;99.90
27306;DHT22;14792;50.886;6.468;2022-12-20T17:22:33;11.60;99.90
27306;DHT22;14792;50.886;6.468;2022-12-20T17:25:35;11.60;99.90
27306;DHT22;14792;50.886;6.468;2022-12-20T17:28:37;11.60;99.90
27306;DHT22;14792;50.886;6.468;2022-12-20T17:31:39;11.60;99.90
27306;DHT22;14792;50.886;6.468;2022-12-20T17:34:40;11.60;99.90
27306;DHT22;14792;50.886;6.468;2022-12-20T17:37:42;11.70;99.90
27306;DHT22;14792;50.886;6.468;2022-12-20T17:40:43;11.70;99.90
27306;DHT22;14792;50.886;6.468;2022-12-20T17:43:45;11.80;99.90
27306;DHT22;14792;50.886;6.468;2022-12-20T17:46:46;11.80;99.90
27306;DHT22;14792;50.886;6.468;2022-12-20T17:49:48;11.70;99.90
27306;DHT22;14792;50.886;6.468;2022-12-20T17:52:49;11.70;99.90
27306;DHT22;14792;50.886;6.468;2022-12-20T17:55:51;11.70;99.90
27306;DHT22;14792;50.886;6.468;2022-12-20T17:58:53;11.60;99.90
27306;DHT22;14792;50.886;6.468;2022-12-20T18:01:54;11.60;99.90
27306;DHT22;14792;50.886;6.468;2022-12-20T18:04:56;11.50;99.90
27306;DHT22;14792;50.886;6.468;2022-12-20T18:07:57;11.40;99.90
27306;DHT22;14792;50.886;6.468;2022-12-20T18:10:59;11.30;99.90
27306;DHT22;14792;50.886;6.468;2022-12-20T18:14:00;11.30;99.90
27306;DHT22;14792;50.886;6.468;2022-12-20T18:17:02;11.10;99.90
27306;DHT22;14792;50.886;6.468;2022-12-20T18:20:07;11.10;99.90
27306;DHT22;14792;50.886;6.468;2022-12-20T18:23:08;11.10;99.90
27306;DHT22;14792;50.886;6.468;2022-12-20T18:26:11;11.00;99.90
27306;DHT22;14792;50.886;6.468;2022-12-20T18:29:12;11.00;99.90
27306;DHT22;14792;50.886;6.468;2022-12-20T18:32:13;11.00;99.90
27306;DHT22;14792;50.886;6.468;2022-12-20T18:35:15;11.00;99.90
27306;DHT22;14792;50.886;6.468;2022-12-20T18:38:16;11.10;99.90
27306;DHT22;14792;50.886;6.468;2022-12-20T18:41:21;11.10;99.90
27306;DHT22;14792;50.886;6.468;2022-12-20T18:44:20;11.00;99.90
27306;DHT22;14792;50.886;6.468;2022-12-20T18:47:21;11.00;99.90
27306;DHT22;14792;50.886;6.468;2022-12-20T18:50:23;10.90;99.90
27306;DHT22;14792;50.886;6.468;2022-12-20T18:53:24;11.20;99.90
27306;DHT22;14792;50.886;6.468;2022-12-20T18:56:27;11.20;99.90
27306;DHT22;14792;50.886;6.468;2022-12-20T18:59:28;11.20;99.90
27306;DHT22;14792;50.886;6.468;2022-12-20T19:02:29;11.40;99.90
27306;DHT22;14792;50.886;6.468;2022-12-20T19:05:31;11.50;99.90
27306;DHT22;14792;50.886;6.468;2022-12-20T19:08:32;11.70;99.90
27306;DHT22;14792;50.886;6.468;2022-12-20T19:11:34;11.80;99.90
27306;DHT22;14792;50.886;6.468;2022-12-20T19:14:36;11.80;99.90
27306;DHT22;14792;50.886;6.468;2022-12-20T19:17:37;11.90;99.90
27306;DHT22;14792;50.886;6.468;2022-12-20T19:20:39;11.90;99.90
27306;DHT22;14792;50.886;6.468;2022-12-20T19:23:41;11.90;99.90
27306;DHT22;14792;50.886;6.468;2022-12-20T19:26:42;11.90;99.90
27306;DHT22;14792;50.886;6.468;2022-12-20T19:29:44;11.80;99.90
27306;DHT22;14792;50.886;6.468;2022-12-20T19:32:45;11.80;99.90
27306;DHT22;14792;50.886;6.468;2022-12-20T19:35:47;11.70;99.90
27306;DHT22;14792;50.886;6.468;2022-12-20T19:38:52;11.70;99.90
27306;DHT22;14792;50.886;6.468;2022-12-20T19:41:50;11.60;99.90
27306;DHT22;14792;50.886;6.468;2022-12-20T19:44:52;11.60;99.90
27306;DHT22;14792;50.886;6.468;2022-12-20T19:47:53;11.60;99.90
27306;DHT22;14792;50.886;6.468;2022-12-20T19:51:01;11.60;99.90
27306;DHT22;14792;50.886;6.468;2022-12-20T19:54:02;11.50;99.90
27306;DHT22;14792;50.886;6.468;2022-12-20T19:57:04;11.50;99.90
27306;DHT22;14792;50.886;6.468;2022-12-20T20:00:06;11.50;99.90
27306;DHT22;14792;50.886;6.468;2022-12-20T20:03:07;11.40;99.90
27306;DHT22;14792;50.886;6.468;2022-12-20T20:06:10;11.40;99.90
27306;DHT22;14792;50.886;6.468;2022-12-20T20:09:11;11.40;99.90
27306;DHT22;14792;50.886;6.468;2022-12-20T20:12:13;11.40;99.90
27306;DHT22;14792;50.886;6.468;2022-12-20T20:15:14;11.30;99.90
27306;DHT22;14792;50.886;6.468;2022-12-20T20:18:16;11.30;99.90
27306;DHT22;14792;50.886;6.468;2022-12-20T20:21:18;11.30;99.90
27306;DHT22;14792;50.886;6.468;2022-12-20T20:24:19;11.20;99.90
27306;DHT22;14792;50.886;6.468;2022-12-20T20:27:21;11.20;99.90
27306;DHT22;14792;50.886;6.468;2022-12-20T20:30:22;11.20;99.90